Time;durP1;ratioP1;P1;durP2;ratioP2;P2;SDS_P1;SDS_P2;PMS_P1;PMS_P2;Temp;Humidity;BMP_temperature;BMP_pressure;BME280_temperature;BME280_humidity;BME280_pressure;Samples;Min_cycle;Max_cycle;Signal;HPM_P1;HPM_P2
2022/10/04 00:01:22;;;;;;;;;;;11.40;94.50;;;;;;5082932;28;19927;-81
2022/10/04 00:03:53;;;;;;;;;;;11.40;94.50;;;;;;5083193;28;21207;-80
2022/10/04 00:06:23;;;;;;;;;;;11.30;94.50;;;;;;5080516;28;19935;-80
2022/10/04 00:08:52;;;;;;;;;;;11.30;94.60;;;;;;5082359;28;19940;-80
2022/10/04 00:11:21;;;;;;;;;;;11.30;94.60;;;;;;5073990;28;19936;-79
2022/10/04 00:13:49;;;;;;;;;;;11.30;94.60;;;;;;5082730;28;19939;-82
2022/10/04 00:16:20;;;;;;;;;;;11.20;94.60;;;;;;5083667;28;19981;-83
2022/10/04 00:18:47;;;;;;;;;;;11.20;94.60;;;;;;5083999;28;19928;-79
2022/10/04 00:21:15;;;;;;;;;;;11.20;94.70;;;;;;5081889;28;20116;-81
2022/10/04 00:23:43;;;;;;;;;;;11.20;94.60;;;;;;5080005;28;19928;-81
2022/10/04 00:26:27;;;;;;;;;;;11.20;94.70;;;;;;5083950;28;20179;-81
2022/10/04 00:28:54;;;;;;;;;;;11.20;94.70;;;;;;5081782;28;19928;-80
2022/10/04 00:31:23;;;;;;;;;;;11.10;94.70;;;;;;5082730;28;20482;-81
2022/10/04 00:33:51;;;;;;;;;;;11.10;94.70;;;;;;5081857;28;19953;-80
2022/10/04 00:36:35;;;;;;;;;;;11.10;94.70;;;;;;5086088;28;19939;-81
2022/10/04 00:39:14;;;;;;;;;;;11.10;94.70;;;;;;5089603;28;19932;-81
2022/10/04 00:41:51;;;;;;;;;;;11.00;94.70;;;;;;5082207;28;19932;-80
2022/10/04 00:44:22;;;;;;;;;;;11.00;94.70;;;;;;5086326;28;19932;-81
2022/10/04 00:46:49;;;;;;;;;;;11.00;94.80;;;;;;5082712;28;19928;-80
2022/10/04 00:49:17;;;;;;;;;;;11.00;94.80;;;;;;5086338;28;19929;-80
2022/10/04 00:51:47;;;;;;;;;;;11.00;94.80;;;;;;5082405;28;20071;-81
2022/10/04 00:54:17;;;;;;;;;;;10.90;94.80;;;;;;5086747;28;19928;-81
2022/10/04 00:56:47;;;;;;;;;;;10.90;94.80;;;;;;5082207;28;19955;-81
2022/10/04 00:59:24;;;;;;;;;;;10.90;94.90;;;;;;5085233;28;19932;-81
2022/10/04 01:01:53;;;;;;;;;;;10.90;94.80;;;;;;5086715;28;19932;-80
2022/10/04 01:04:26;;;;;;;;;;;10.80;94.80;;;;;;5087590;28;19928;-79
2022/10/04 01:06:54;;;;;;;;;;;10.80;94.90;;;;;;5085306;28;19935;-79
2022/10/04 01:09:21;;;;;;;;;;;10.80;94.90;;;;;;5086904;28;19932;-80
2022/10/04 01:11:56;;;;;;;;;;;10.80;94.90;;;;;;5085392;28;20304;-81
2022/10/04 01:14:27;;;;;;;;;;;10.80;94.90;;;;;;5084890;28;19939;-80
2022/10/04 01:16:54;;;;;;;;;;;10.80;94.90;;;;;;5085540;28;20466;-80
2022/10/04 01:19:30;;;;;;;;;;;10.80;94.90;;;;;;5087482;28;20394;-79
2022/10/04 01:22:08;;;;;;;;;;;10.70;94.90;;;;;;5085832;28;19928;-81
2022/10/04 01:24:37;;;;;;;;;;;10.70;95.00;;;;;;5085932;28;20375;-80
2022/10/04 01:27:04;;;;;;;;;;;10.70;95.00;;;;;;5079393;28;19929;-81
2022/10/04 01:29:31;;;;;;;;;;;10.70;95.00;;;;;;5085129;28;19932;-81
2022/10/04 01:31:58;;;;;;;;;;;10.70;95.00;;;;;;5087845;28;19928;-80
2022/10/04 01:34:26;;;;;;;;;;;10.70;95.00;;;;;;5085192;28;19939;-82
2022/10/04 01:36:54;;;;;;;;;;;10.70;95.00;;;;;;5083775;28;20700;-80
2022/10/04 01:39:22;;;;;;;;;;;10.60;95.00;;;;;;5086786;28;19975;-80
2022/10/04 01:41:52;;;;;;;;;;;10.60;95.00;;;;;;5080534;28;19943;-80
2022/10/04 01:44:27;;;;;;;;;;;10.60;95.10;;;;;;5085170;28;20427;-79
2022/10/04 01:46:56;;;;;;;;;;;10.60;95.00;;;;;;5081225;28;19928;-80
2022/10/04 01:49:26;;;;;;;;;;;10.50;95.00;;;;;;5085633;28;19928;-81
2022/10/04 01:51:55;;;;;;;;;;;10.50;95.10;;;;;;5085017;28;20632;-80
2022/10/04 01:54:25;;;;;;;;;;;10.50;95.10;;;;;;5084990;28;20602;-82
2022/10/04 01:56:56;;;;;;;;;;;10.50;95.10;;;;;;5080255;28;19933;-81
2022/10/04 01:59:24;;;;;;;;;;;10.50;95.10;;;;;;5078518;28;19934;-80
2022/10/04 02:01:53;;;;;;;;;;;10.40;95.10;;;;;;5081052;28;19928;-80
2022/10/04 02:04:21;;;;;;;;;;;10.40;95.10;;;;;;5084452;28;19935;-80
2022/10/04 02:06:52;;;;;;;;;;;10.40;95.10;;;;;;5079725;28;19935;-80
2022/10/04 02:09:20;;;;;;;;;;;10.40;95.10;;;;;;5074775;28;20429;-80
2022/10/04 02:11:49;;;;;;;;;;;10.40;95.10;;;;;;5080756;28;19939;-78
2022/10/04 02:14:18;;;;;;;;;;;10.40;95.10;;;;;;5085408;28;20418;-80
2022/10/04 02:16:46;;;;;;;;;;;10.30;95.10;;;;;;5085563;28;20456;-80
2022/10/04 02:19:13;;;;;;;;;;;10.30;95.20;;;;;;5085857;28;19935;-80
2022/10/04 02:21:40;;;;;;;;;;;10.40;95.20;;;;;;5084014;28;19932;-80
2022/10/04 02:24:07;;;;;;;;;;;10.30;95.20;;;;;;5085596;28;19928;-79
2022/10/04 02:26:34;;;;;;;;;;;10.30;95.20;;;;;;5084763;28;19932;-80
2022/10/04 02:29:01;;;;;;;;;;;10.30;95.20;;;;;;5084496;28;19935;-80
2022/10/04 02:34:14;;;;;;;;;;;10.30;95.20;;;;;;5085173;28;19964;-81
2022/10/04 02:36:41;;;;;;;;;;;10.20;95.20;;;;;;5081271;28;19935;-79
2022/10/04 02:39:10;;;;;;;;;;;10.20;95.20;;;;;;5083923;28;19935;-80
2022/10/04 02:41:39;;;;;;;;;;;10.20;95.30;;;;;;5076827;28;19928;-81
2022/10/04 02:44:11;;;;;;;;;;;10.20;95.30;;;;;;5083251;28;19932;-80
2022/10/04 02:46:43;;;;;;;;;;;10.20;95.30;;;;;;5084673;28;20642;-80
2022/10/04 02:49:16;;;;;;;;;;;10.10;95.30;;;;;;5083872;28;19939;-79
2022/10/04 02:51:46;;;;;;;;;;;10.10;95.30;;;;;;5079168;28;20041;-81
2022/10/04 02:54:16;;;;;;;;;;;10.10;95.30;;;;;;5078051;28;19928;-80
2022/10/04 02:56:43;;;;;;;;;;;10.10;95.30;;;;;;5080551;28;20675;-79
2022/10/04 02:59:16;;;;;;;;;;;10.10;95.40;;;;;;5081514;28;19927;-80
2022/10/04 03:01:49;;;;;;;;;;;10.10;95.40;;;;;;5084601;28;19935;-80
2022/10/04 03:04:16;;;;;;;;;;;10.10;95.40;;;;;;5083728;28;19981;-79
2022/10/04 03:06:44;;;;;;;;;;;10.00;95.40;;;;;;5081718;28;20171;-81
2022/10/04 03:09:11;;;;;;;;;;;10.00;95.40;;;;;;5083428;28;19946;-81
2022/10/04 03:11:39;;;;;;;;;;;10.00;95.70;;;;;;5080980;28;20125;-80
2022/10/04 03:14:08;;;;;;;;;;;10.00;95.40;;;;;;5084354;28;19935;-80
2022/10/04 03:16:36;;;;;;;;;;;10.00;95.40;;;;;;5083295;28;20014;-80
2022/10/04 03:19:04;;;;;;;;;;;10.00;95.50;;;;;;5083738;28;19936;-79
2022/10/04 03:21:31;;;;;;;;;;;10.00;95.40;;;;;;5081053;28;19932;-81
2022/10/04 03:23:59;;;;;;;;;;;10.00;95.50;;;;;;5081637;28;20411;-80
2022/10/04 03:26:28;;;;;;;;;;;9.90;95.40;;;;;;5082830;28;19936;-79
2022/10/04 03:28:55;;;;;;;;;;;9.90;95.50;;;;;;5083432;28;19928;-81
2022/10/04 03:31:23;;;;;;;;;;;9.90;95.50;;;;;;5083464;28;19939;-78
2022/10/04 03:33:50;;;;;;;;;;;9.90;95.50;;;;;;5084808;28;19973;-81
2022/10/04 03:36:18;;;;;;;;;;;9.90;95.50;;;;;;5082567;28;20348;-79
2022/10/04 03:38:46;;;;;;;;;;;9.90;95.50;;;;;;5083994;28;20340;-80
2022/10/04 03:41:13;;;;;;;;;;;9.90;95.50;;;;;;5082421;28;21115;-79
2022/10/04 03:43:42;;;;;;;;;;;9.90;95.50;;;;;;5084117;28;20471;-79
2022/10/04 03:46:09;;;;;;;;;;;9.90;95.60;;;;;;5081490;28;20459;-80
2022/10/04 03:48:38;;;;;;;;;;;9.80;95.50;;;;;;5083022;28;19928;-80
2022/10/04 03:51:06;;;;;;;;;;;9.80;95.60;;;;;;5079076;28;19935;-80
2022/10/04 03:53:38;;;;;;;;;;;9.80;95.60;;;;;;5082672;28;19924;-80
2022/10/04 03:56:09;;;;;;;;;;;9.80;95.60;;;;;;5081443;28;20416;-80
2022/10/04 03:58:36;;;;;;;;;;;9.80;95.60;;;;;;5076458;28;19928;-81
2022/10/04 04:01:12;;;;;;;;;;;9.80;95.60;;;;;;5073283;28;19967;-79
2022/10/04 04:03:45;;;;;;;;;;;9.70;95.60;;;;;;5081768;28;19932;-80
2022/10/04 04:06:15;;;;;;;;;;;9.70;95.60;;;;;;5081657;28;19955;-80
2022/10/04 04:08:45;;;;;;;;;;;9.70;95.80;;;;;;5081552;28;20339;-81
2022/10/04 04:11:17;;;;;;;;;;;9.70;95.60;;;;;;5080584;28;20568;-81
2022/10/04 04:13:48;;;;;;;;;;;9.80;95.70;;;;;;5080594;28;19932;-80
2022/10/04 04:16:14;;;;;;;;;;;9.70;95.80;;;;;;5076677;28;20437;-80
2022/10/04 04:18:43;;;;;;;;;;;9.70;95.70;;;;;;5080867;28;19928;-80
2022/10/04 04:21:12;;;;;;;;;;;9.70;95.70;;;;;;5077843;28;19932;-79
2022/10/04 04:23:39;;;;;;;;;;;9.70;95.70;;;;;;5081787;28;19928;-81
2022/10/04 04:26:14;;;;;;;;;;;9.60;95.70;;;;;;5081060;28;19954;-79
2022/10/04 04:28:43;;;;;;;;;;;9.60;95.70;;;;;;5077658;28;19997;-80
2022/10/04 04:31:16;;;;;;;;;;;9.60;95.70;;;;;;5080627;28;19935;-80
2022/10/04 04:33:45;;;;;;;;;;;9.60;95.70;;;;;;5082577;28;19928;-80
2022/10/04 04:36:12;;;;;;;;;;;9.60;95.70;;;;;;5080865;28;19975;-80
2022/10/04 04:39:33;;;;;;;;;;;9.60;95.70;;;;;;5077509;28;19935;-80
2022/10/04 04:41:29;;;;;;;;;;;9.50;95.60;;;;;;5079298;28;19928;-80
2022/10/04 04:43:55;;;;;;;;;;;9.50;95.70;;;;;;5079098;28;19928;-80
2022/10/04 04:46:22;;;;;;;;;;;9.50;95.70;;;;;;5080805;28;19932;-81
2022/10/04 04:48:52;;;;;;;;;;;9.50;95.60;;;;;;5082542;28;19939;-80
2022/10/04 04:51:20;;;;;;;;;;;9.50;95.90;;;;;;5079636;28;19955;-81
2022/10/04 04:53:47;;;;;;;;;;;9.50;95.70;;;;;;5082216;28;20289;-81
2022/10/04 04:56:18;;;;;;;;;;;9.50;95.70;;;;;;5081121;28;19928;-82
2022/10/04 04:58:47;;;;;;;;;;;9.40;95.70;;;;;;5076691;28;19928;-79
2022/10/04 05:01:18;;;;;;;;;;;9.40;95.70;;;;;;5081479;28;19970;-80
2022/10/04 05:03:44;;;;;;;;;;;9.40;95.70;;;;;;5081505;28;19928;-80
2022/10/04 05:06:23;;;;;;;;;;;9.40;95.70;;;;;;5081744;28;19940;-80
2022/10/04 05:08:50;;;;;;;;;;;9.40;95.70;;;;;;5080202;28;19935;-80
2022/10/04 05:11:18;;;;;;;;;;;9.40;95.70;;;;;;5081296;28;19935;-80
2022/10/04 05:13:47;;;;;;;;;;;9.40;95.70;;;;;;5081064;28;19933;-80
2022/10/04 05:16:17;;;;;;;;;;;9.40;95.70;;;;;;5081896;28;19928;-81
2022/10/04 05:18:45;;;;;;;;;;;9.30;95.70;;;;;;5079847;28;20375;-80
2022/10/04 05:21:13;;;;;;;;;;;9.40;95.80;;;;;;5082103;28;19935;-80
2022/10/04 05:23:40;;;;;;;;;;;9.30;95.70;;;;;;5084275;28;20725;-81
2022/10/04 05:26:10;;;;;;;;;;;9.30;95.70;;;;;;5085464;28;19924;-82
2022/10/04 05:28:37;;;;;;;;;;;9.30;96.10;;;;;;5085801;28;19928;-81
2022/10/04 05:31:18;;;;;;;;;;;9.30;95.80;;;;;;5085043;28;19928;-81
2022/10/04 05:33:47;;;;;;;;;;;9.30;95.80;;;;;;5081176;28;19962;-80
2022/10/04 05:36:25;;;;;;;;;;;9.30;95.80;;;;;;5084282;28;20308;-80
2022/10/04 05:38:56;;;;;;;;;;;9.30;95.80;;;;;;5085212;28;19933;-81
2022/10/04 05:41:26;;;;;;;;;;;9.30;95.80;;;;;;5083430;28;19931;-79
2022/10/04 05:43:52;;;;;;;;;;;9.20;95.80;;;;;;5081622;28;19934;-80
2022/10/04 05:46:22;;;;;;;;;;;9.20;95.70;;;;;;5082830;28;19935;-81
2022/10/04 05:48:52;;;;;;;;;;;9.20;95.70;;;;;;5084356;28;19977;-79
2022/10/04 05:51:19;;;;;;;;;;;9.20;95.80;;;;;;5083144;28;19963;-79
2022/10/04 05:53:46;;;;;;;;;;;9.20;95.80;;;;;;5085226;28;19927;-81
2022/10/04 05:56:19;;;;;;;;;;;9.20;95.80;;;;;;5084262;28;20486;-80
2022/10/04 05:58:52;;;;;;;;;;;9.20;95.80;;;;;;5080010;28;20343;-80
2022/10/04 06:01:26;;;;;;;;;;;9.10;95.70;;;;;;5077685;28;19935;-81
2022/10/04 06:04:14;;;;;;;;;;;9.20;95.80;;;;;;5084728;28;19935;-80
2022/10/04 06:06:48;;;;;;;;;;;9.10;95.80;;;;;;5074775;28;19936;-80
2022/10/04 06:09:21;;;;;;;;;;;9.20;95.80;;;;;;5085431;28;19931;-80
2022/10/04 06:11:53;;;;;;;;;;;9.10;95.80;;;;;;5082378;28;19928;-81
2022/10/04 06:14:34;;;;;;;;;;;9.10;95.80;;;;;;5077332;28;19928;-80
2022/10/04 06:17:18;;;;;;;;;;;9.10;95.80;;;;;;5084042;28;19928;-80
2022/10/04 06:19:57;;;;;;;;;;;9.10;95.80;;;;;;5078718;28;19932;-80
2022/10/04 06:22:26;;;;;;;;;;;9.10;95.90;;;;;;5079832;28;19935;-79
2022/10/04 06:24:56;;;;;;;;;;;9.10;95.90;;;;;;5083776;28;19932;-80
2022/10/04 06:27:26;;;;;;;;;;;9.10;95.90;;;;;;5085515;28;19939;-79
2022/10/04 06:29:55;;;;;;;;;;;9.10;96.00;;;;;;5085427;28;20758;-79
2022/10/04 06:32:31;;;;;;;;;;;9.10;95.90;;;;;;5078792;28;19928;-79
2022/10/04 06:35:19;;;;;;;;;;;9.10;96.00;;;;;;5081767;28;19933;-80
2022/10/04 06:37:57;;;;;;;;;;;9.10;96.00;;;;;;5084791;28;19932;-80
2022/10/04 06:40:45;;;;;;;;;;;9.10;96.00;;;;;;5080806;28;19928;-81
2022/10/04 06:43:30;;;;;;;;;;;9.10;96.00;;;;;;5079332;28;19932;-80
2022/10/04 06:46:05;;;;;;;;;;;9.10;96.00;;;;;;5083144;28;20037;-80
2022/10/04 06:48:47;;;;;;;;;;;9.10;96.00;;;;;;5086706;28;19935;-80
2022/10/04 06:51:19;;;;;;;;;;;9.10;96.00;;;;;;5080829;28;19928;-81
2022/10/04 06:53:53;;;;;;;;;;;9.10;96.10;;;;;;5085163;28;19935;-80
2022/10/04 06:56:37;;;;;;;;;;;9.10;96.10;;;;;;5076136;28;19928;-79
2022/10/04 06:59:19;;;;;;;;;;;9.10;96.10;;;;;;5074133;28;19924;-79
2022/10/04 07:01:48;;;;;;;;;;;9.10;96.10;;;;;;5077222;28;19927;-79
2022/10/04 07:04:20;;;;;;;;;;;9.10;96.10;;;;;;5075781;28;20271;-80
2022/10/04 07:06:51;;;;;;;;;;;9.10;96.10;;;;;;5074008;28;19935;-79
2022/10/04 07:09:23;;;;;;;;;;;9.10;96.10;;;;;;5076949;28;19946;-80
2022/10/04 07:11:52;;;;;;;;;;;9.10;96.50;;;;;;5082048;28;19931;-79
2022/10/04 07:14:23;;;;;;;;;;;9.10;96.20;;;;;;5077130;28;19928;-80
2022/10/04 07:16:53;;;;;;;;;;;9.10;96.20;;;;;;5084672;28;19940;-80
2022/10/04 07:19:27;;;;;;;;;;;9.10;96.20;;;;;;5085163;28;20454;-80
2022/10/04 07:21:56;;;;;;;;;;;9.10;96.20;;;;;;5081801;28;19936;-80
2022/10/04 07:24:26;;;;;;;;;;;9.10;96.20;;;;;;5085266;28;19924;-80
2022/10/04 07:26:54;;;;;;;;;;;9.10;96.20;;;;;;5084321;28;19928;-79
2022/10/04 07:29:21;;;;;;;;;;;9.10;96.20;;;;;;5084611;28;19939;-80
2022/10/04 07:31:51;;;;;;;;;;;9.10;96.20;;;;;;5083019;28;20500;-80
2022/10/04 07:34:20;;;;;;;;;;;9.10;96.60;;;;;;5080240;28;19928;-79
2022/10/04 07:36:49;;;;;;;;;;;9.10;96.20;;;;;;5078843;28;19928;-80
2022/10/04 07:39:18;;;;;;;;;;;9.10;96.20;;;;;;5083969;28;19935;-80
2022/10/04 07:41:49;;;;;;;;;;;9.10;96.60;;;;;;5080710;28;19928;-80
2022/10/04 07:44:19;;;;;;;;;;;9.10;96.30;;;;;;5083455;28;19955;-80
2022/10/04 07:46:48;;;;;;;;;;;9.10;96.30;;;;;;5084221;28;20022;-80
2022/10/04 07:49:16;;;;;;;;;;;9.10;96.30;;;;;;5083470;28;19939;-80
2022/10/04 07:51:49;;;;;;;;;;;9.10;96.30;;;;;;5083166;28;19939;-80
2022/10/04 07:54:18;;;;;;;;;;;9.10;96.30;;;;;;5083707;28;19928;-80
2022/10/04 07:56:47;;;;;;;;;;;9.10;96.30;;;;;;5080276;28;19928;-79
2022/10/04 07:59:23;;;;;;;;;;;9.10;96.30;;;;;;5082010;28;19928;-80
2022/10/04 08:01:55;;;;;;;;;;;9.20;96.30;;;;;;5084794;28;19934;-80
2022/10/04 08:04:29;;;;;;;;;;;9.20;96.40;;;;;;5077536;28;19935;-81
2022/10/04 08:06:57;;;;;;;;;;;9.20;96.40;;;;;;5081235;28;19928;-80
2022/10/04 08:09:43;;;;;;;;;;;9.10;96.30;;;;;;5085335;28;20419;-80
2022/10/04 08:12:16;;;;;;;;;;;9.20;96.40;;;;;;5080871;28;20348;-80
2022/10/04 08:14:51;;;;;;;;;;;9.20;96.30;;;;;;5085300;28;19932;-80
2022/10/04 08:17:22;;;;;;;;;;;9.20;96.30;;;;;;5084054;28;19928;-80
2022/10/04 08:19:54;;;;;;;;;;;9.20;96.40;;;;;;5080459;28;19928;-80
2022/10/04 08:22:32;;;;;;;;;;;9.20;96.30;;;;;;5085098;28;19924;-80
2022/10/04 08:25:01;;;;;;;;;;;9.30;96.40;;;;;;5083512;28;19932;-81
2022/10/04 08:27:39;;;;;;;;;;;9.30;96.40;;;;;;5083345;28;19928;-80
2022/10/04 08:30:10;;;;;;;;;;;9.30;96.30;;;;;;5083147;28;19928;-80
2022/10/04 08:32:45;;;;;;;;;;;9.30;96.30;;;;;;5083858;28;19931;-81
2022/10/04 08:35:22;;;;;;;;;;;9.40;96.20;;;;;;5084417;28;20388;-80
2022/10/04 08:37:55;;;;;;;;;;;9.40;96.20;;;;;;5084102;28;19928;-81
2022/10/04 08:40:38;;;;;;;;;;;9.40;96.20;;;;;;5079047;28;20487;-81
2022/10/04 08:43:19;;;;;;;;;;;9.50;96.20;;;;;;5079231;28;19939;-81
2022/10/04 08:46:08;;;;;;;;;;;9.50;96.10;;;;;;5070203;28;19974;-80
2022/10/04 08:48:49;;;;;;;;;;;9.50;96.10;;;;;;5079099;28;20334;-80
2022/10/04 08:51:35;;;;;;;;;;;9.50;96.10;;;;;;5081457;28;19971;-81
2022/10/04 08:54:28;;;;;;;;;;;9.60;96.10;;;;;;5083194;28;20413;-79
2022/10/04 08:57:05;;;;;;;;;;;9.60;96.10;;;;;;5080579;28;19929;-80
2022/10/04 08:59:46;;;;;;;;;;;9.60;96.20;;;;;;5087850;28;19935;-81
2022/10/04 09:02:30;;;;;;;;;;;9.60;96.20;;;;;;5087247;28;19932;-80
2022/10/04 09:05:13;;;;;;;;;;;9.70;96.20;;;;;;5088362;28;19935;-81
2022/10/04 09:07:50;;;;;;;;;;;9.80;96.20;;;;;;5082617;28;19928;-81
2022/10/04 09:10:31;;;;;;;;;;;9.80;96.10;;;;;;5084205;28;19932;-80
2022/10/04 09:13:11;;;;;;;;;;;9.90;96.00;;;;;;5084056;28;19936;-80
2022/10/04 09:15:43;;;;;;;;;;;9.90;95.90;;;;;;5085881;28;19935;-79
2022/10/04 09:18:29;;;;;;;;;;;10.00;95.80;;;;;;5086958;28;19948;-80
2022/10/04 09:21:01;;;;;;;;;;;10.00;95.70;;;;;;5083860;28;19935;-80
2022/10/04 09:23:44;;;;;;;;;;;10.10;95.60;;;;;;5087243;28;19967;-79
2022/10/04 09:26:19;;;;;;;;;;;10.10;95.50;;;;;;5085649;28;19935;-80
2022/10/04 09:29:07;;;;;;;;;;;10.20;95.40;;;;;;5087066;28;19928;-79
2022/10/04 09:31:48;;;;;;;;;;;10.20;95.40;;;;;;5086731;28;19931;-80
2022/10/04 09:34:23;;;;;;;;;;;10.30;95.30;;;;;;5085313;28;20690;-80
2022/10/04 09:37:02;;;;;;;;;;;10.30;95.20;;;;;;5083007;28;20439;-80
2022/10/04 09:39:39;;;;;;;;;;;10.40;95.10;;;;;;5085425;28;19935;-80
2022/10/04 09:42:17;;;;;;;;;;;10.40;95.00;;;;;;5081179;28;19935;-81
2022/10/04 09:44:56;;;;;;;;;;;10.50;95.00;;;;;;5087174;28;19928;-80
2022/10/04 09:47:30;;;;;;;;;;;10.60;95.00;;;;;;5087174;28;19928;-80
2022/10/04 09:50:25;;;;;;;;;;;10.60;94.80;;;;;;5078850;28;20015;-80
2022/10/04 09:53:00;;;;;;;;;;;10.70;94.80;;;;;;5085331;28;19928;-81
2022/10/04 09:55:42;;;;;;;;;;;10.70;94.60;;;;;;5086791;28;19936;-81
2022/10/04 09:58:16;;;;;;;;;;;10.70;94.50;;;;;;5080460;28;19934;-80
2022/10/04 10:00:46;;;;;;;;;;;10.90;94.50;;;;;;5086253;28;19928;-80
2022/10/04 10:03:31;;;;;;;;;;;10.90;94.50;;;;;;5087272;28;19928;-81
2022/10/04 10:06:08;;;;;;;;;;;11.00;94.50;;;;;;5083735;28;19939;-80
2022/10/04 10:08:43;;;;;;;;;;;11.10;94.50;;;;;;5084524;28;19940;-81
2022/10/04 10:14:07;;;;;;;;;;;11.30;94.70;;;;;;5085191;28;20069;-80
2022/10/04 10:16:40;;;;;;;;;;;11.30;94.30;;;;;;5084616;28;20642;-80
2022/10/04 10:19:21;;;;;;;;;;;11.30;94.20;;;;;;5086177;28;19975;-81
2022/10/04 10:21:59;;;;;;;;;;;11.40;94.00;;;;;;5078364;28;19928;-80
2022/10/04 10:24:47;;;;;;;;;;;11.50;94.10;;;;;;5085380;28;20429;-80
2022/10/04 10:27:34;;;;;;;;;;;11.60;94.00;;;;;;5081068;28;19928;-80
2022/10/04 10:30:14;;;;;;;;;;;11.70;93.90;;;;;;5085221;28;20031;-80
2022/10/04 10:32:54;;;;;;;;;;;11.80;93.80;;;;;;5085729;28;19928;-80
2022/10/04 10:35:27;;;;;;;;;;;11.80;93.70;;;;;;5078296;28;19935;-80
2022/10/04 10:38:06;;;;;;;;;;;11.90;93.60;;;;;;5085771;28;20438;-80
2022/10/04 10:40:42;;;;;;;;;;;12.00;93.60;;;;;;5085284;28;19928;-81
2022/10/04 10:43:22;;;;;;;;;;;12.00;93.60;;;;;;5080576;28;19932;-80
2022/10/04 10:45:57;;;;;;;;;;;12.10;93.50;;;;;;5083779;28;20323;-80
2022/10/04 10:48:33;;;;;;;;;;;12.20;93.30;;;;;;5079167;28;19932;-80
2022/10/04 10:51:02;;;;;;;;;;;12.30;93.20;;;;;;5080985;28;19939;-79
2022/10/04 10:53:44;;;;;;;;;;;12.30;93.10;;;;;;5086494;28;19977;-80
2022/10/04 10:56:31;;;;;;;;;;;12.40;93.00;;;;;;5085692;28;19932;-81
2022/10/04 10:59:19;;;;;;;;;;;12.40;92.90;;;;;;5082473;28;19942;-80
2022/10/04 11:01:58;;;;;;;;;;;12.50;92.90;;;;;;5085591;28;20026;-80
2022/10/04 11:04:38;;;;;;;;;;;12.60;92.70;;;;;;5085873;28;19991;-79
2022/10/04 11:07:23;;;;;;;;;;;12.60;92.60;;;;;;5083271;28;19943;-80
2022/10/04 11:10:11;;;;;;;;;;;12.70;92.60;;;;;;5084153;28;19935;-80
2022/10/04 11:12:51;;;;;;;;;;;12.80;92.60;;;;;;5063155;28;19928;-80
2022/10/04 11:15:37;;;;;;;;;;;12.90;92.50;;;;;;5082860;28;19928;-80
2022/10/04 11:18:27;;;;;;;;;;;12.90;92.30;;;;;;5084099;28;20119;-80
2022/10/04 11:21:13;;;;;;;;;;;13.00;92.30;;;;;;5080681;28;20715;-80
2022/10/04 11:23:57;;;;;;;;;;;13.10;92.20;;;;;;5085276;28;20316;-80
2022/10/04 11:26:38;;;;;;;;;;;13.20;92.10;;;;;;5084739;28;19928;-81
2022/10/04 11:29:12;;;;;;;;;;;13.30;91.90;;;;;;5084706;28;20200;-81
2022/10/04 11:31:55;;;;;;;;;;;13.30;91.80;;;;;;5085234;28;19935;-80
2022/10/04 11:34:56;;;;;;;;;;;13.40;91.70;;;;;;5086541;28;19936;-81
2022/10/04 11:37:33;;;;;;;;;;;13.50;91.50;;;;;;5041852;28;19928;-80
2022/10/04 11:40:16;;;;;;;;;;;13.50;91.40;;;;;;5080087;28;19928;-80
2022/10/04 11:42:52;;;;;;;;;;;13.60;91.30;;;;;;5082408;28;19928;-81
2022/10/04 11:45:32;;;;;;;;;;;13.70;91.40;;;;;;5078492;28;19935;-79
2022/10/04 11:48:10;;;;;;;;;;;13.80;91.20;;;;;;5083190;28;19929;-80
2022/10/04 11:50:43;;;;;;;;;;;13.80;91.10;;;;;;5072416;28;19928;-81
2022/10/04 11:53:26;;;;;;;;;;;13.90;91.10;;;;;;5084261;28;19935;-82
2022/10/04 11:56:16;;;;;;;;;;;13.90;91.00;;;;;;5085154;28;20645;-82
2022/10/04 11:58:52;;;;;;;;;;;14.00;91.00;;;;;;5078749;28;19928;-80
2022/10/04 12:01:37;;;;;;;;;;;14.10;90.40;;;;;;5075109;28;20387;-79
2022/10/04 12:04:30;;;;;;;;;;;14.10;90.40;;;;;;5032094;28;19939;-79
2022/10/04 12:07:07;;;;;;;;;;;14.20;90.50;;;;;;5031066;28;19939;-80
2022/10/04 12:09:40;;;;;;;;;;;14.30;90.40;;;;;;5083556;28;19928;-79
2022/10/04 12:12:36;;;;;;;;;;;14.30;90.30;;;;;;5080075;28;20431;-80
2022/10/04 12:15:12;;;;;;;;;;;14.40;90.10;;;;;;5036712;28;20460;-80
2022/10/04 12:18:00;;;;;;;;;;;14.50;90.10;;;;;;5078089;28;19928;-80
2022/10/04 12:20:37;;;;;;;;;;;14.50;89.70;;;;;;5056737;28;19932;-80
2022/10/04 12:23:37;;;;;;;;;;;14.60;89.80;;;;;;5081288;28;20547;-80
2022/10/04 12:26:15;;;;;;;;;;;14.70;89.50;;;;;;5024625;28;20369;-79
2022/10/04 12:28:51;;;;;;;;;;;14.80;88.70;;;;;;5021648;28;19968;-80
2022/10/04 12:31:25;;;;;;;;;;;14.80;88.90;;;;;;5056500;28;19932;-80
2022/10/04 12:33:56;;;;;;;;;;;14.80;88.80;;;;;;5087359;28;19928;-79
2022/10/04 12:36:31;;;;;;;;;;;14.90;88.60;;;;;;5084525;28;19939;-80
2022/10/04 12:39:12;;;;;;;;;;;15.00;88.50;;;;;;5087092;28;19928;-80
2022/10/04 12:41:45;;;;;;;;;;;14.90;88.30;;;;;;5083580;28;19939;-80
2022/10/04 12:44:18;;;;;;;;;;;15.00;87.90;;;;;;5086615;28;20056;-80
2022/10/04 12:46:51;;;;;;;;;;;15.10;88.00;;;;;;5085549;28;19968;-80
2022/10/04 12:49:25;;;;;;;;;;;15.20;88.10;;;;;;5085672;28;19927;-79
2022/10/04 12:51:55;;;;;;;;;;;15.20;87.80;;;;;;5084737;28;19932;-80
2022/10/04 12:54:30;;;;;;;;;;;15.30;87.60;;;;;;5086797;28;19928;-81
2022/10/04 12:57:06;;;;;;;;;;;15.40;87.00;;;;;;5082182;28;20268;-80
2022/10/04 12:59:42;;;;;;;;;;;15.50;87.20;;;;;;5086898;28;19932;-80
2022/10/04 13:02:20;;;;;;;;;;;15.50;86.30;;;;;;5085476;28;20909;-80
2022/10/04 13:04:48;;;;;;;;;;;15.50;86.70;;;;;;5087492;28;19942;-80
2022/10/04 13:07:25;;;;;;;;;;;15.60;86.80;;;;;;5081302;28;20806;-80
2022/10/04 13:09:56;;;;;;;;;;;15.70;86.50;;;;;;5086488;28;19935;-79
2022/10/04 13:12:31;;;;;;;;;;;15.70;86.30;;;;;;5086135;28;19928;-80
2022/10/04 13:15:11;;;;;;;;;;;15.80;86.00;;;;;;5086427;28;20050;-80
2022/10/04 13:17:42;;;;;;;;;;;15.80;85.30;;;;;;5081170;28;19932;-80
2022/10/04 13:20:33;;;;;;;;;;;15.90;85.30;;;;;;5086382;28;19935;-80
2022/10/04 13:23:03;;;;;;;;;;;16.00;85.20;;;;;;5075512;28;20076;-80
2022/10/04 13:25:37;;;;;;;;;;;16.00;85.20;;;;;;5087463;28;19935;-80
2022/10/04 13:28:08;;;;;;;;;;;16.10;85.10;;;;;;5085440;28;19928;-80
2022/10/04 13:30:37;;;;;;;;;;;16.10;85.20;;;;;;5087724;28;19935;-80
2022/10/04 13:33:11;;;;;;;;;;;16.20;85.20;;;;;;5086876;28;19932;-80
2022/10/04 13:35:42;;;;;;;;;;;16.20;84.10;;;;;;5083212;28;19975;-80
2022/10/04 13:38:23;;;;;;;;;;;16.30;84.50;;;;;;5086702;28;19928;-80
2022/10/04 13:41:01;;;;;;;;;;;16.30;84.80;;;;;;5087099;28;20293;-79
2022/10/04 13:43:36;;;;;;;;;;;16.40;84.90;;;;;;5084689;28;19928;-80
2022/10/04 13:46:11;;;;;;;;;;;16.50;84.40;;;;;;5083336;28;19929;-80
2022/10/04 13:48:52;;;;;;;;;;;16.50;84.50;;;;;;5087628;28;19928;-80
2022/10/04 13:51:23;;;;;;;;;;;16.60;84.50;;;;;;5080714;28;20696;-81
2022/10/04 13:56:45;;;;;;;;;;;16.70;84.30;;;;;;5083897;28;20303;-80
2022/10/04 13:59:21;;;;;;;;;;;16.70;84.00;;;;;;5083591;28;20260;-78
2022/10/04 14:02:09;;;;;;;;;;;16.80;84.00;;;;;;5086212;28;19928;-78
2022/10/04 14:04:50;;;;;;;;;;;16.90;83.90;;;;;;5081529;28;20321;-79
2022/10/04 14:07:33;;;;;;;;;;;16.90;83.70;;;;;;5077196;28;19928;-78
2022/10/04 14:10:12;;;;;;;;;;;17.00;83.60;;;;;;5085197;28;20216;-79
2022/10/04 14:12:45;;;;;;;;;;;17.00;83.50;;;;;;5083176;28;19935;-79
2022/10/04 14:15:37;;;;;;;;;;;17.10;83.40;;;;;;5085834;28;21252;-78
2022/10/04 14:18:24;;;;;;;;;;;17.10;82.90;;;;;;5085439;28;19935;-77
2022/10/04 14:21:11;;;;;;;;;;;17.20;83.10;;;;;;5086621;28;19935;-78
2022/10/04 14:23:50;;;;;;;;;;;17.30;82.60;;;;;;5086599;28;19928;-78
2022/10/04 14:26:37;;;;;;;;;;;17.30;82.60;;;;;;5086560;28;21181;-78
2022/10/04 14:29:27;;;;;;;;;;;17.30;82.70;;;;;;5084320;28;19928;-78
2022/10/04 14:32:06;;;;;;;;;;;17.40;82.40;;;;;;5084874;28;19928;-78
2022/10/04 14:34:47;;;;;;;;;;;17.40;82.30;;;;;;5085400;28;19935;-78
2022/10/04 14:37:31;;;;;;;;;;;17.50;82.10;;;;;;5086597;28;19928;-78
2022/10/04 14:40:05;;;;;;;;;;;17.50;81.70;;;;;;5083781;28;19928;-80
2022/10/04 14:42:47;;;;;;;;;;;17.60;81.60;;;;;;5079808;28;20447;-78
2022/10/04 14:45:20;;;;;;;;;;;17.60;81.40;;;;;;5084514;28;19928;-78
2022/10/04 14:48:05;;;;;;;;;;;17.70;81.30;;;;;;5085727;28;19928;-79
2022/10/04 14:50:37;;;;;;;;;;;17.70;81.30;;;;;;5071090;28;19982;-77
2022/10/04 14:53:10;;;;;;;;;;;17.70;81.20;;;;;;5084031;28;19935;-77
2022/10/04 14:55:55;;;;;;;;;;;17.80;81.00;;;;;;5085984;28;19932;-78
2022/10/04 14:58:26;;;;;;;;;;;17.80;81.10;;;;;;5081801;28;20305;-78
2022/10/04 15:01:07;;;;;;;;;;;17.80;81.10;;;;;;5084967;28;20020;-77
2022/10/04 15:03:39;;;;;;;;;;;17.80;80.90;;;;;;5085916;28;19935;-77
2022/10/04 15:06:18;;;;;;;;;;;17.80;80.90;;;;;;5083686;28;19928;-76
2022/10/04 15:08:54;;;;;;;;;;;17.80;81.00;;;;;;5086381;28;19928;-78
2022/10/04 15:11:34;;;;;;;;;;;17.70;81.10;;;;;;5084359;28;19929;-77